Relevés horaires Beauvechain (Belgique)


Relevés horaires à Beauvechain - Mercredi 29 Juill. 2020
Heure UTC1 Température [°C] Vent [km/h] Hum. [%] Pres.4 [hPa] Visi. [Km] Nébu. [octa] Préc.5 [mm] Cond.
2m. Res. Ros. Dir.2 Vit. Moy. Raf.3
23:00 14.9 14.9 9.3 NNO 1.9 -- 1.9 69 1021.1(0.5/3h) 20 -- -- --
22:00 15.3 15.3 9.5 NNO 1.9 -- 3.7 68 1021.1(1.0/3h) 20 -- -- --
21:00 15.8 15.8 9.8 N 3.7 -- 9.3 67 1020.7(0.8/3h) 20 -- -- --
20:00 16.9 16.9 10.0 N 5.6 -- 7.4 64 1020.3(0.5/3h) 20 -- -- --
19:00 20.2 20.2 9.4 NNO 1.9 -- 5.6 50 1019.7(-0.2/3h) 20 -- -- --
18:00 21.7 21.7 8.9 NNO 1.9 -- 11.1 44 1019.6(-0.4/3h) 20 -- -- --
17:00 22.0 22.0 8.4 ONO 5.6 -- 9.3 42 1019.7(-0.5/3h) 20 -- -- --
16:00 22.2 22.2 8.1 NO 5.6 -- 11.1 40 1019.8(-0.5/3h) 20 -- -- --
15:00 22.3 22.3 8.6 ONO 3.7 -- 11.1 41 1020.1(-0.7/3h) 20 3/8 -- --
14:00 21.4 21.4 8.3 O 5.6 -- 11.1 43 1020.2(-0.9/3h) 20 3/8 -- --
13:00 21.8 21.8 9.0 ONO 7.4 -- 11.1 44 1020.3(-0.4/3h) 20 3/8 -- --
12:00 20.2 20.2 8.1 O 5.6 -- 11.1 46 1020.8(0.0/3h) 20 3/8 -- --
11:00 19.1 19.1 8.4 O 7.4 -- 11.1 50 1021.2(0.3/3h) 20 3/8 -- --
10:00 19.2 19.2 8.6 OSO 5.6 -- 11.1 50 1021(0.6/3h) 20 3/8 -- --
09:00 18.3 18.3 9.4 SO 3.7 -- 9.3 56 1021(0.8/3h) 20 3/8 -- --
08:00 17.1 17.1 10.2 ONO 3.7 -- 5.6 64 1021(1.3/3h) 20 1/8 -- --
07:00 14.9 14.9 11.4 SO 3.7 -- 7.4 80 1020.6(1.5/3h) 20 1/8 -- --
06:00 12.8 12.8 11.2 SO 5.6 -- 7.4 90 1020.3(1.4/3h) 15 1/8 -- --
05:00 11.3 11.3 10.3 SO 3.7 -- 5.6 94 1020(1.1/3h) 12 1/8 -- --
04:00 11.1 11.1 10.1 SO 3.7 -- 5.6 94 1019.2(0.4/3h) 15 -- -- --
03:00 11.7 11.5 10.2 SO 5.6 -- 7.4 91 1018.8(0.2/3h) 19 -- -- --
02:00 12.4 12.3 10.2 SO 5.6 5.6 7.4 86 1018.7(0.1/3h) 20 -- -- --
01:00 13.0 13 10.0 SO 5.6 -- 7.4 82 1018.6(0.4/3h) 20 -- -- --
00:00 14.0 14.0 9.8 SO 5.6 -- 14.8 76 1018.6(0.7/3h) 20 -- -- --

1 Coordinated Universal Time. Actuellement il est 03:00 locale et 01:00 UTC.

2 Le vent souffle depuis la direction indiquée vers la direction oposée.

3 Les rafales max. sont disponible 40 min après l'heure du relevé.

4 Pour les stations d'altitude (plus de 600m) le géopotentiel du niveau le plus proche de la pression obligatoire est indiqué.

5 Les stations disposant d'un diffuseur peuvent indiquer "trace". Cela signifie que des précipitations ont touchés le sol mais que la quantité est inférieure à 0.1 mm.

Récapitulatif de la journée
Température [°C] Vent [km/h] Ensoleillement4 [h] Precipitations totale5 [mm] Pression [Hpa]
Min1 Max.2 Moy.3 Max. Min Max.
11.0 23.2 5.6 14.8 0 h 0 min 0 1018.6 1021.2

1 Température minimale relevée entre 18:00 UTC la veille et 18:00 UTC le jour donné.

2 Température maximale relevée entre 06:00 UTC le jour donné et 06:00 UTC le lendemain.

3 Vent moyen de la journée basé sur les relevés horaires.

4 Ensoleillement en heures relevé entre 06:00 UTC la veille et 06:00 UTC le jour donné.

5 Précipitations totales tombées entre 06:00 UTC la jour donné et 06:00 UTC le lendemain.

Graphiques horaires